<?xml version="1.0" encoding="UTF-8" standalone="no" ?><gpx xmlns="http://www.topografix.com/GPX/1/1" xmlns:gpxx="http://www.garmin.com/xmlschemas/GpxExtensions/v3" xmlns:gpxtrkx="http://www.garmin.com/xmlschemas/TrackStatsExtension/v1" xmlns:wptx1="http://www.garmin.com/xmlschemas/WaypointExtension/v1" xmlns:gpxtpx="http://www.garmin.com/xmlschemas/TrackPointExtension/v1" creator="Oregon 700" version="1.1" xmlns:xsi="http://www.w3.org/2001/XMLSchema-instance" xsi:schemaLocation="http://www.topografix.com/GPX/1/1 http://www.topografix.com/GPX/1/1/gpx.xsd http://www.garmin.com/xmlschemas/GpxExtensions/v3 http://www8.garmin.com/xmlschemas/GpxExtensionsv3.xsd http://www.garmin.com/xmlschemas/TrackStatsExtension/v1 http://www8.garmin.com/xmlschemas/TrackStatsExtension.xsd http://www.garmin.com/xmlschemas/WaypointExtension/v1 http://www8.garmin.com/xmlschemas/WaypointExtensionv1.xsd http://www.garmin.com/xmlschemas/TrackPointExtension/v1 http://www.garmin.com/xmlschemas/TrackPointExtensionv1.xsd"><metadata><link href="http://www.garmin.com"><text>Garmin International</text></link><time>2023-11-29T16:56:18Z</time></metadata><trk><name>Current Track: 29 NOV 2023 10:08</name><extensions><gpxx:TrackExtension><gpxx:DisplayColor>Cyan</gpxx:DisplayColor></gpxx:TrackExtension><gpxtrkx:TrackStatsExtension><gpxtrkx:Distance>3883.000</gpxtrkx:Distance><gpxtrkx:TimerTime>8564</gpxtrkx:TimerTime><gpxtrkx:TotalElapsedTime>24485</gpxtrkx:TotalElapsedTime><gpxtrkx:MovingTime>5392</gpxtrkx:MovingTime><gpxtrkx:StoppedTime>3173</gpxtrkx:StoppedTime><gpxtrkx:MovingSpeed>0.720</gpxtrkx:MovingSpeed><gpxtrkx:MaxSpeed>1.666</gpxtrkx:MaxSpeed><gpxtrkx:MaxElevation>327.893</gpxtrkx:MaxElevation><gpxtrkx:MinElevation>201.324</gpxtrkx:MinElevation><gpxtrkx:Ascent>185.000</gpxtrkx:Ascent><gpxtrkx:Descent>178.781</gpxtrkx:Descent><gpxtrkx:AvgAscentRate>0.050</gpxtrkx:AvgAscentRate><gpxtrkx:MaxAscentRate>0.131</gpxtrkx:MaxAscentRate><gpxtrkx:AvgDescentRate>0.079</gpxtrkx:AvgDescentRate><gpxtrkx:MaxDescentRate>-0.159</gpxtrkx:MaxDescentRate><gpxtrkx:Calories>211</gpxtrkx:Calories></gpxtrkx:TrackStatsExtension></extensions><trkseg><trkpt lat="51.9386096019" lon="-2.0289449394"><ele>199.81</ele><time>2023-11-29T10:08:14Z</time></trkpt><trkpt lat="51.9386043213" lon="-2.0289389044"><ele>198.84</ele><time>2023-11-29T10:08:36Z</time></trkpt><trkpt lat="51.9386014715" lon="-2.0289335400"><ele>202.58</ele><time>2023-11-29T10:08:39Z</time></trkpt><trkpt lat="51.9385972805" lon="-2.0289301872"><ele>204.44</ele><time>2023-11-29T10:08:42Z</time></trkpt><trkpt lat="51.9385818578" lon="-2.0289084781"><ele>201.21</ele><time>2023-11-29T10:08:55Z</time></trkpt><trkpt lat="51.9385692012" lon="-2.0289429277"><ele>202.01</ele><time>2023-11-29T10:09:19Z</time></trkpt><trkpt lat="51.9385635015" lon="-2.0289359707"><ele>201.80</ele><time>2023-11-29T10:09:40Z</time></trkpt><trkpt lat="51.9385603163" lon="-2.0289718453"><ele>201.88</ele><time>2023-11-29T10:10:01Z</time></trkpt><trkpt lat="51.9385434687" lon="-2.0289678220"><ele>201.57</ele><time>2023-11-29T10:10:22Z</time></trkpt><trkpt lat="51.9385163113" lon="-2.0288833324"><ele>201.61</ele><time>2023-11-29T10:10:49Z</time></trkpt><trkpt lat="51.9384428859" lon="-2.0287680812"><ele>202.66</ele><time>2023-11-29T10:11:07Z</time></trkpt><trkpt lat="51.9383513555" lon="-2.0287166163"><ele>203.65</ele><time>2023-11-29T10:11:27Z</time></trkpt><trkpt lat="51.9383203425" lon="-2.0286836755"><ele>204.42</ele><time>2023-11-29T10:11:51Z</time></trkpt><trkpt lat="51.9383136369" lon="-2.0285110082"><ele>205.71</ele><time>2023-11-29T10:12:14Z</time></trkpt><trkpt lat="51.9383244496" lon="-2.0283535123"><ele>207.57</ele><time>2023-11-29T10:12:32Z</time></trkpt><trkpt lat="51.9383284729" lon="-2.0281885564"><ele>209.29</ele><time>2023-11-29T10:12:54Z</time></trkpt><trkpt lat="51.9383206777" lon="-2.0280335750"><ele>210.45</ele><time>2023-11-29T10:13:15Z</time></trkpt><trkpt lat="51.9383252878" lon="-2.0278170705"><ele>211.34</ele><time>2023-11-29T10:13:35Z</time></trkpt><trkpt lat="51.9383203425" lon="-2.0277567208"><ele>212.14</ele><time>2023-11-29T10:13:54Z</time></trkpt><trkpt lat="51.9383569714" lon="-2.0276963711"><ele>212.30</ele><time>2023-11-29T10:14:23Z</time></trkpt><trkpt lat="51.9383504335" lon="-2.0275268052"><ele>214.34</ele><time>2023-11-29T10:14:45Z</time></trkpt><trkpt lat="51.9383412134" lon="-2.0273254719"><ele>216.30</ele><time>2023-11-29T10:15:08Z</time></trkpt><trkpt lat="51.9383055903" lon="-2.0272248052"><ele>217.58</ele><time>2023-11-29T10:15:30Z</time></trkpt><trkpt lat="51.9382306561" lon="-2.0271277428"><ele>219.22</ele><time>2023-11-29T10:15:50Z</time></trkpt><trkpt lat="51.9381079450" lon="-2.0269917883"><ele>221.10</ele><time>2023-11-29T10:16:15Z</time></trkpt><trkpt lat="51.9380243775" lon="-2.0268933848"><ele>222.74</ele><time>2023-11-29T10:16:35Z</time></trkpt><trkpt lat="51.9379220344" lon="-2.0268155169"><ele>224.40</ele><time>2023-11-29T10:16:58Z</time></trkpt><trkpt lat="51.9378236309" lon="-2.0267509762"><ele>226.75</ele><time>2023-11-29T10:17:18Z</time></trkpt><trkpt lat="51.9377614371" lon="-2.0267152693"><ele>228.28</ele><time>2023-11-29T10:17:36Z</time></trkpt><trkpt lat="51.9377181865" lon="-2.0267052948"><ele>229.72</ele><time>2023-11-29T10:17:54Z</time></trkpt><trkpt lat="51.9376099762" lon="-2.0266508125"><ele>230.58</ele><time>2023-11-29T10:18:14Z</time></trkpt><trkpt lat="51.9375901949" lon="-2.0266272593"><ele>231.59</ele><time>2023-11-29T10:18:33Z</time></trkpt><trkpt lat="51.9375905301" lon="-2.0266207214"><ele>231.75</ele><time>2023-11-29T10:18:54Z</time></trkpt><trkpt lat="51.9375228882" lon="-2.0266641397"><ele>231.63</ele><time>2023-11-29T10:19:17Z</time></trkpt><trkpt lat="51.9374541566" lon="-2.0266762935"><ele>232.77</ele><time>2023-11-29T10:19:34Z</time></trkpt><trkpt lat="51.9374682382" lon="-2.0266051311"><ele>230.36</ele><time>2023-11-29T10:19:54Z</time></trkpt><trkpt lat="51.9374744408" lon="-2.0265836734"><ele>234.40</ele><time>2023-11-29T10:20:01Z</time></trkpt><trkpt lat="51.9374865945" lon="-2.0265629701"><ele>237.84</ele><time>2023-11-29T10:20:03Z</time></trkpt><trkpt lat="51.9374876004" lon="-2.0265602041"><ele>238.74</ele><time>2023-11-29T10:20:05Z</time></trkpt><trkpt lat="51.9374905340" lon="-2.0265555102"><ele>235.68</ele><time>2023-11-29T10:20:13Z</time></trkpt><trkpt lat="51.9375258218" lon="-2.0264979266"><ele>234.55</ele><time>2023-11-29T10:20:29Z</time></trkpt><trkpt lat="51.9375302643" lon="-2.0264596213"><ele>231.42</ele><time>2023-11-29T10:20:33Z</time></trkpt><trkpt lat="51.9375291746" lon="-2.0264490601"><ele>231.13</ele><time>2023-11-29T10:20:34Z</time></trkpt><trkpt lat="51.9375178590" lon="-2.0264188852"><ele>235.04</ele><time>2023-11-29T10:20:37Z</time></trkpt><trkpt lat="51.9374342076" lon="-2.0263194758"><ele>237.59</ele><time>2023-11-29T10:20:56Z</time></trkpt><trkpt lat="51.9373340439" lon="-2.0263221581"><ele>239.76</ele><time>2023-11-29T10:21:16Z</time></trkpt><trkpt lat="51.9373103231" lon="-2.0263348147"><ele>240.88</ele><time>2023-11-29T10:21:33Z</time></trkpt><trkpt lat="51.9372668210" lon="-2.0263356529"><ele>240.85</ele><time>2023-11-29T10:21:52Z</time></trkpt><trkpt lat="51.9372466207" lon="-2.0263399277"><ele>240.85</ele><time>2023-11-29T10:21:54Z</time></trkpt><trkpt lat="51.9370352291" lon="-2.0263619721"><ele>241.90</ele><time>2023-11-29T10:22:18Z</time></trkpt><trkpt lat="51.9369314611" lon="-2.0263605472"><ele>242.46</ele><time>2023-11-29T10:22:37Z</time></trkpt><trkpt lat="51.9368878752" lon="-2.0263655763"><ele>243.38</ele><time>2023-11-29T10:22:54Z</time></trkpt><trkpt lat="51.9368449599" lon="-2.0263692643"><ele>243.87</ele><time>2023-11-29T10:23:17Z</time></trkpt><trkpt lat="51.9367225841" lon="-2.0264197234"><ele>244.32</ele><time>2023-11-29T10:23:37Z</time></trkpt><trkpt lat="51.9367034733" lon="-2.0264157001"><ele>245.52</ele><time>2023-11-29T10:23:54Z</time></trkpt><trkpt lat="51.9366963487" lon="-2.0264031272"><ele>245.52</ele><time>2023-11-29T10:24:16Z</time></trkpt><trkpt lat="51.9366077520" lon="-2.0263815019"><ele>245.50</ele><time>2023-11-29T10:24:35Z</time></trkpt><trkpt lat="51.9365195744" lon="-2.0262961742"><ele>247.43</ele><time>2023-11-29T10:24:56Z</time></trkpt><trkpt lat="51.9364509266" lon="-2.0262369141"><ele>248.96</ele><time>2023-11-29T10:25:19Z</time></trkpt><trkpt lat="51.9363534451" lon="-2.0262056496"><ele>250.23</ele><time>2023-11-29T10:25:43Z</time></trkpt><trkpt lat="51.9363340829" lon="-2.0261996146"><ele>251.65</ele><time>2023-11-29T10:26:04Z</time></trkpt><trkpt lat="51.9362347573" lon="-2.0262121037"><ele>252.14</ele><time>2023-11-29T10:26:25Z</time></trkpt><trkpt lat="51.9361961167" lon="-2.0262236707"><ele>254.28</ele><time>2023-11-29T10:26:45Z</time></trkpt><trkpt lat="51.9361320790" lon="-2.0261913165"><ele>255.55</ele><time>2023-11-29T10:27:09Z</time></trkpt><trkpt lat="51.9361048378" lon="-2.0261610579"><ele>257.77</ele><time>2023-11-29T10:27:31Z</time></trkpt><trkpt lat="51.9360461645" lon="-2.0261520054"><ele>258.57</ele><time>2023-11-29T10:27:52Z</time></trkpt><trkpt lat="51.9360035006" lon="-2.0261426177"><ele>259.09</ele><time>2023-11-29T10:28:15Z</time></trkpt><trkpt lat="51.9359560590" lon="-2.0261574537"><ele>260.34</ele><time>2023-11-29T10:28:40Z</time></trkpt><trkpt lat="51.9359273929" lon="-2.0261318050"><ele>261.87</ele><time>2023-11-29T10:29:00Z</time></trkpt><trkpt lat="51.9358930271" lon="-2.0261135325"><ele>261.70</ele><time>2023-11-29T10:29:26Z</time></trkpt><trkpt lat="51.9358897582" lon="-2.0261088386"><ele>265.99</ele><time>2023-11-29T10:29:30Z</time></trkpt><trkpt lat="51.9358626846" lon="-2.0260643307"><ele>264.27</ele><time>2023-11-29T10:29:52Z</time></trkpt><trkpt lat="51.9358203560" lon="-2.0260121115"><ele>265.38</ele><time>2023-11-29T10:30:13Z</time></trkpt><trkpt lat="51.9357473496" lon="-2.0259630773"><ele>266.97</ele><time>2023-11-29T10:30:35Z</time></trkpt><trkpt lat="51.9357112236" lon="-2.0258972794"><ele>268.91</ele><time>2023-11-29T10:30:56Z</time></trkpt><trkpt lat="51.9356401451" lon="-2.0257557090"><ele>271.03</ele><time>2023-11-29T10:31:22Z</time></trkpt><trkpt lat="51.9355844893" lon="-2.0256497618"><ele>272.68</ele><time>2023-11-29T10:31:47Z</time></trkpt><trkpt lat="51.9355527218" lon="-2.0255722292"><ele>274.71</ele><time>2023-11-29T10:32:07Z</time></trkpt><trkpt lat="51.9355464354" lon="-2.0255444851"><ele>275.53</ele><time>2023-11-29T10:32:36Z</time></trkpt><trkpt lat="51.9355326891" lon="-2.0255474187"><ele>275.71</ele><time>2023-11-29T10:32:54Z</time></trkpt><trkpt lat="51.9355163444" lon="-2.0255384501"><ele>275.45</ele><time>2023-11-29T10:33:15Z</time></trkpt><trkpt lat="51.9355189428" lon="-2.0255423058"><ele>275.89</ele><time>2023-11-29T10:33:49Z</time></trkpt><trkpt lat="51.9355227984" lon="-2.0255473349"><ele>275.89</ele><time>2023-11-29T10:34:25Z</time></trkpt><trkpt lat="51.9355073757" lon="-2.0255449042"><ele>275.89</ele><time>2023-11-29T10:34:45Z</time></trkpt><trkpt lat="51.9354499597" lon="-2.0254459977"><ele>275.89</ele><time>2023-11-29T10:35:02Z</time></trkpt><trkpt lat="51.9353722595" lon="-2.0253351051"><ele>279.17</ele><time>2023-11-29T10:35:13Z</time></trkpt><trkpt lat="51.9353558309" lon="-2.0253149047"><ele>282.19</ele><time>2023-11-29T10:35:27Z</time></trkpt><trkpt lat="51.9352655578" lon="-2.0252332650"><ele>282.49</ele><time>2023-11-29T10:35:49Z</time></trkpt><trkpt lat="51.9352264982" lon="-2.0252044313"><ele>284.00</ele><time>2023-11-29T10:36:09Z</time></trkpt><trkpt lat="51.9351011049" lon="-2.0251840632"><ele>285.32</ele><time>2023-11-29T10:36:30Z</time></trkpt><trkpt lat="51.9350545853" lon="-2.0251639467"><ele>286.51</ele><time>2023-11-29T10:36:55Z</time></trkpt><trkpt lat="51.9348716922" lon="-2.0251245517"><ele>288.53</ele><time>2023-11-29T10:37:17Z</time></trkpt><trkpt lat="51.9347716123" lon="-2.0251018368"><ele>289.54</ele><time>2023-11-29T10:37:34Z</time></trkpt><trkpt lat="51.9346445426" lon="-2.0250579156"><ele>290.80</ele><time>2023-11-29T10:37:54Z</time></trkpt><trkpt lat="51.9345485698" lon="-2.0249931235"><ele>291.78</ele><time>2023-11-29T10:38:15Z</time></trkpt><trkpt lat="51.9344745576" lon="-2.0249419101"><ele>292.44</ele><time>2023-11-29T10:38:37Z</time></trkpt><trkpt lat="51.9343924988" lon="-2.0248921216"><ele>293.28</ele><time>2023-11-29T10:38:55Z</time></trkpt><trkpt lat="51.9343190733" lon="-2.0248599350"><ele>294.22</ele><time>2023-11-29T10:39:11Z</time></trkpt><trkpt lat="51.9342329912" lon="-2.0247805584"><ele>295.44</ele><time>2023-11-29T10:39:28Z</time></trkpt><trkpt lat="51.9342003018" lon="-2.0246952306"><ele>295.83</ele><time>2023-11-29T10:39:46Z</time></trkpt><trkpt lat="51.9341436401" lon="-2.0246129204"><ele>297.49</ele><time>2023-11-29T10:40:04Z</time></trkpt><trkpt lat="51.9341174047" lon="-2.0245659817"><ele>298.20</ele><time>2023-11-29T10:40:22Z</time></trkpt><trkpt lat="51.9340775069" lon="-2.0244482160"><ele>298.84</ele><time>2023-11-29T10:40:41Z</time></trkpt><trkpt lat="51.9340397045" lon="-2.0244077314"><ele>300.45</ele><time>2023-11-29T10:40:59Z</time></trkpt><trkpt lat="51.9339998066" lon="-2.0243496448"><ele>300.85</ele><time>2023-11-29T10:41:18Z</time></trkpt><trkpt lat="51.9338864833" lon="-2.0242174622"><ele>301.13</ele><time>2023-11-29T10:41:36Z</time></trkpt><trkpt lat="51.9338263851" lon="-2.0240919013"><ele>302.02</ele><time>2023-11-29T10:41:51Z</time></trkpt><trkpt lat="51.9337481819" lon="-2.0239403564"><ele>304.14</ele><time>2023-11-29T10:42:08Z</time></trkpt><trkpt lat="51.9336558133" lon="-2.0238245185"><ele>306.11</ele><time>2023-11-29T10:42:26Z</time></trkpt><trkpt lat="51.9336360320" lon="-2.0237583015"><ele>307.19</ele><time>2023-11-29T10:42:41Z</time></trkpt><trkpt lat="51.9336378761" lon="-2.0237198286"><ele>307.22</ele><time>2023-11-29T10:43:08Z</time></trkpt><trkpt lat="51.9336031750" lon="-2.0237104408"><ele>307.12</ele><time>2023-11-29T10:43:27Z</time></trkpt><trkpt lat="51.9335206971" lon="-2.0236452296"><ele>307.95</ele><time>2023-11-29T10:43:46Z</time></trkpt><trkpt lat="51.9334748480" lon="-2.0235707983"><ele>308.68</ele><time>2023-11-29T10:44:03Z</time></trkpt><trkpt lat="51.9333471078" lon="-2.0234707184"><ele>308.96</ele><time>2023-11-29T10:44:21Z</time></trkpt><trkpt lat="51.9332052860" lon="-2.0233557187"><ele>309.59</ele><time>2023-11-29T10:44:41Z</time></trkpt><trkpt lat="51.9331357162" lon="-2.0232750848"><ele>309.68</ele><time>2023-11-29T10:45:00Z</time></trkpt><trkpt lat="51.9330520649" lon="-2.0231619291"><ele>309.48</ele><time>2023-11-29T10:45:18Z</time></trkpt><trkpt lat="51.9329585228" lon="-2.0230890904"><ele>309.44</ele><time>2023-11-29T10:45:35Z</time></trkpt><trkpt lat="51.9328318723" lon="-2.0229656249"><ele>309.44</ele><time>2023-11-29T10:45:56Z</time></trkpt><trkpt lat="51.9327131845" lon="-2.0227912813"><ele>309.44</ele><time>2023-11-29T10:46:19Z</time></trkpt><trkpt lat="51.9326157030" lon="-2.0226522256"><ele>309.44</ele><time>2023-11-29T10:46:36Z</time></trkpt><trkpt lat="51.9324987754" lon="-2.0224896166"><ele>309.44</ele><time>2023-11-29T10:46:58Z</time></trkpt><trkpt lat="51.9324137829" lon="-2.0223583560"><ele>309.44</ele><time>2023-11-29T10:47:17Z</time></trkpt><trkpt lat="51.9324022159" lon="-2.0223218109"><ele>306.24</ele><time>2023-11-29T10:47:33Z</time></trkpt><trkpt lat="51.9323988631" lon="-2.0223173685"><ele>306.21</ele><time>2023-11-29T10:47:34Z</time></trkpt><trkpt lat="51.9323290419" lon="-2.0222286880"><ele>306.02</ele><time>2023-11-29T10:47:50Z</time></trkpt><trkpt lat="51.9322634954" lon="-2.0221917238"><ele>305.68</ele><time>2023-11-29T10:48:05Z</time></trkpt><trkpt lat="51.9321510941" lon="-2.0220991876"><ele>305.91</ele><time>2023-11-29T10:48:26Z</time></trkpt><trkpt lat="51.9320427161" lon="-2.0220021252"><ele>306.37</ele><time>2023-11-29T10:48:44Z</time></trkpt><trkpt lat="51.9319511857" lon="-2.0218981057"><ele>306.37</ele><time>2023-11-29T10:49:01Z</time></trkpt><trkpt lat="51.9318596553" lon="-2.0217500813"><ele>306.37</ele><time>2023-11-29T10:49:20Z</time></trkpt><trkpt lat="51.9317921810" lon="-2.0216603950"><ele>309.17</ele><time>2023-11-29T10:49:31Z</time></trkpt><trkpt lat="51.9317667000" lon="-2.0216189884"><ele>310.10</ele><time>2023-11-29T10:49:46Z</time></trkpt><trkpt lat="51.9317214377" lon="-2.0215389412"><ele>310.41</ele><time>2023-11-29T10:50:02Z</time></trkpt><trkpt lat="51.9317126367" lon="-2.0215308107"><ele>307.15</ele><time>2023-11-29T10:50:25Z</time></trkpt><trkpt lat="51.9317183364" lon="-2.0215316489"><ele>310.43</ele><time>2023-11-29T10:50:32Z</time></trkpt><trkpt lat="51.9317193422" lon="-2.0215267036"><ele>314.68</ele><time>2023-11-29T10:50:34Z</time></trkpt><trkpt lat="51.9317224436" lon="-2.0215136278"><ele>311.63</ele><time>2023-11-29T10:50:45Z</time></trkpt><trkpt lat="51.9317207672" lon="-2.0214951038"><ele>310.90</ele><time>2023-11-29T10:51:22Z</time></trkpt><trkpt lat="51.9316027500" lon="-2.0213966165"><ele>308.20</ele><time>2023-11-29T10:51:37Z</time></trkpt><trkpt lat="51.9315564819" lon="-2.0213603228"><ele>312.32</ele><time>2023-11-29T10:51:42Z</time></trkpt><trkpt lat="51.9314025901" lon="-2.0211934391"><ele>313.53</ele><time>2023-11-29T10:51:59Z</time></trkpt><trkpt lat="51.9312088005" lon="-2.0210008230"><ele>314.99</ele><time>2023-11-29T10:52:20Z</time></trkpt><trkpt lat="51.9309790526" lon="-2.0207874198"><ele>316.56</ele><time>2023-11-29T10:52:44Z</time></trkpt><trkpt lat="51.9308177009" lon="-2.0206644572"><ele>317.42</ele><time>2023-11-29T10:53:01Z</time></trkpt><trkpt lat="51.9306799024" lon="-2.0205596834"><ele>318.12</ele><time>2023-11-29T10:53:19Z</time></trkpt><trkpt lat="51.9305636454" lon="-2.0204618666"><ele>318.60</ele><time>2023-11-29T10:53:37Z</time></trkpt><trkpt lat="51.9304430299" lon="-2.0203456096"><ele>318.92</ele><time>2023-11-29T10:53:55Z</time></trkpt><trkpt lat="51.9303428661" lon="-2.0202317834"><ele>319.50</ele><time>2023-11-29T10:54:12Z</time></trkpt><trkpt lat="51.9302196521" lon="-2.0201218966"><ele>320.07</ele><time>2023-11-29T10:54:32Z</time></trkpt><trkpt lat="51.9301297981" lon="-2.0200663246"><ele>320.07</ele><time>2023-11-29T10:54:51Z</time></trkpt><trkpt lat="51.9299858809" lon="-2.0200037118"><ele>320.64</ele><time>2023-11-29T10:55:11Z</time></trkpt><trkpt lat="51.9298208412" lon="-2.0199450385"><ele>321.08</ele><time>2023-11-29T10:55:32Z</time></trkpt><trkpt lat="51.9297112059" lon="-2.0199058112"><ele>321.41</ele><time>2023-11-29T10:55:51Z</time></trkpt><trkpt lat="51.9295940269" lon="-2.0198613033"><ele>321.88</ele><time>2023-11-29T10:56:09Z</time></trkpt><trkpt lat="51.9295466691" lon="-2.0198437851"><ele>322.03</ele><time>2023-11-29T10:56:22Z</time></trkpt><trkpt lat="51.9295194279" lon="-2.0198349003"><ele>322.03</ele><time>2023-11-29T10:56:25Z</time></trkpt><trkpt lat="51.9293469284" lon="-2.0197972655"><ele>322.81</ele><time>2023-11-29T10:56:45Z</time></trkpt><trkpt lat="51.9292278215" lon="-2.0197664201"><ele>324.07</ele><time>2023-11-29T10:57:03Z</time></trkpt><trkpt lat="51.9291728362" lon="-2.0197653305"><ele>324.40</ele><time>2023-11-29T10:57:19Z</time></trkpt><trkpt lat="51.9290864188" lon="-2.0197443757"><ele>324.82</ele><time>2023-11-29T10:57:38Z</time></trkpt><trkpt lat="51.9290939625" lon="-2.0197106805"><ele>324.89</ele><time>2023-11-29T10:58:06Z</time></trkpt><trkpt lat="51.9291099720" lon="-2.0197269414"><ele>325.33</ele><time>2023-11-29T10:58:29Z</time></trkpt><trkpt lat="51.9291144144" lon="-2.0197079983"><ele>324.87</ele><time>2023-11-29T10:58:51Z</time></trkpt><trkpt lat="51.9291095529" lon="-2.0196877141"><ele>324.70</ele><time>2023-11-29T10:59:17Z</time></trkpt><trkpt lat="51.9291172642" lon="-2.0196896419"><ele>324.70</ele><time>2023-11-29T10:59:37Z</time></trkpt><trkpt lat="51.9291125704" lon="-2.0196923241"><ele>324.70</ele><time>2023-11-29T10:59:59Z</time></trkpt><trkpt lat="51.9291135762" lon="-2.0197124407"><ele>324.70</ele><time>2023-11-29T11:00:17Z</time></trkpt><trkpt lat="51.9291250594" lon="-2.0197254326"><ele>324.70</ele><time>2023-11-29T11:00:45Z</time></trkpt><trkpt lat="51.9291148335" lon="-2.0197385922"><ele>324.70</ele><time>2023-11-29T11:01:06Z</time></trkpt><trkpt lat="51.9291076250" lon="-2.0197436213"><ele>324.70</ele><time>2023-11-29T11:01:40Z</time></trkpt><trkpt lat="51.9291134924" lon="-2.0197167154"><ele>324.70</ele><time>2023-11-29T11:02:11Z</time></trkpt><trkpt lat="51.9291186053" lon="-2.0196952578"><ele>324.70</ele><time>2023-11-29T11:02:37Z</time></trkpt><trkpt lat="51.9291165099" lon="-2.0196946710"><ele>324.70</ele><time>2023-11-29T11:03:19Z</time></trkpt><trkpt lat="51.9291269872" lon="-2.0196897257"><ele>324.70</ele><time>2023-11-29T11:03:58Z</time></trkpt><trkpt lat="51.9291315135" lon="-2.0196616463"><ele>324.70</ele><time>2023-11-29T11:04:43Z</time></trkpt><trkpt lat="51.9291345309" lon="-2.0196665078"><ele>324.70</ele><time>2023-11-29T11:05:01Z</time></trkpt><trkpt lat="51.9291371293" lon="-2.0196496602"><ele>324.70</ele><time>2023-11-29T11:05:24Z</time></trkpt><trkpt lat="51.9291398115" lon="-2.0196515881"><ele>324.70</ele><time>2023-11-29T11:06:02Z</time></trkpt><trkpt lat="51.9291340280" lon="-2.0196542703"><ele>324.70</ele><time>2023-11-29T11:06:33Z</time></trkpt><trkpt lat="51.9291231316" lon="-2.0196567848"><ele>324.70</ele><time>2023-11-29T11:07:02Z</time></trkpt><trkpt lat="51.9291257299" lon="-2.0196632389"><ele>324.70</ele><time>2023-11-29T11:07:40Z</time></trkpt><trkpt lat="51.9291185215" lon="-2.0196804218"><ele>324.70</ele><time>2023-11-29T11:08:12Z</time></trkpt><trkpt lat="51.9291182701" lon="-2.0196901448"><ele>324.70</ele><time>2023-11-29T11:09:12Z</time></trkpt><trkpt lat="51.9291218743" lon="-2.0196843613"><ele>324.70</ele><time>2023-11-29T11:09:52Z</time></trkpt><trkpt lat="51.9291112293" lon="-2.0196924079"><ele>324.70</ele><time>2023-11-29T11:10:35Z</time></trkpt><trkpt lat="51.9291144982" lon="-2.0196844451"><ele>324.70</ele><time>2023-11-29T11:10:58Z</time></trkpt><trkpt lat="51.9291141629" lon="-2.0196739677"><ele>324.70</ele><time>2023-11-29T11:11:35Z</time></trkpt><trkpt lat="51.9291181024" lon="-2.0196765661"><ele>324.70</ele><time>2023-11-29T11:12:10Z</time></trkpt><trkpt lat="51.9291225448" lon="-2.0196783263"><ele>324.70</ele><time>2023-11-29T11:12:38Z</time></trkpt><trkpt lat="51.9291211199" lon="-2.0196884684"><ele>324.70</ele><time>2023-11-29T11:13:15Z</time></trkpt><trkpt lat="51.9291108940" lon="-2.0196756441"><ele>324.70</ele><time>2023-11-29T11:14:02Z</time></trkpt><trkpt lat="51.9291164260" lon="-2.0196560305"><ele>324.70</ele><time>2023-11-29T11:14:29Z</time></trkpt><trkpt lat="51.9291171804" lon="-2.0196709502"><ele>324.70</ele><time>2023-11-29T11:15:00Z</time></trkpt><trkpt lat="51.9291157555" lon="-2.0196699444"><ele>324.70</ele><time>2023-11-29T11:15:41Z</time></trkpt><trkpt lat="51.9291197788" lon="-2.0196701959"><ele>324.70</ele><time>2023-11-29T11:16:18Z</time></trkpt><trkpt lat="51.9291243888" lon="-2.0196653344"><ele>324.70</ele><time>2023-11-29T11:16:50Z</time></trkpt><trkpt lat="51.9291230477" lon="-2.0196542703"><ele>324.70</ele><time>2023-11-29T11:17:19Z</time></trkpt><trkpt lat="51.9291209523" lon="-2.0196379256"><ele>324.70</ele><time>2023-11-29T11:17:50Z</time></trkpt><trkpt lat="51.9291203655" lon="-2.0196567848"><ele>324.70</ele><time>2023-11-29T11:18:23Z</time></trkpt><trkpt lat="51.9291251432" lon="-2.0196503308"><ele>324.70</ele><time>2023-11-29T11:19:15Z</time></trkpt><trkpt lat="51.9291320164" lon="-2.0196558628"><ele>324.70</ele><time>2023-11-29T11:19:59Z</time></trkpt><trkpt lat="51.9291248918" lon="-2.0196572877"><ele>324.70</ele><time>2023-11-29T11:20:33Z</time></trkpt><trkpt lat="51.9291197788" lon="-2.0196446311"><ele>324.70</ele><time>2023-11-29T11:21:08Z</time></trkpt><trkpt lat="51.9291120674" lon="-2.0197219960"><ele>324.70</ele><time>2023-11-29T11:21:22Z</time></trkpt><trkpt lat="51.9291222095" lon="-2.0196977723"><ele>324.70</ele><time>2023-11-29T11:21:51Z</time></trkpt><trkpt lat="51.9291180186" lon="-2.0197100937"><ele>324.70</ele><time>2023-11-29T11:22:06Z</time></trkpt><trkpt lat="51.9291434996" lon="-2.0196934137"><ele>324.70</ele><time>2023-11-29T11:22:34Z</time></trkpt><trkpt lat="51.9291310105" lon="-2.0197098423"><ele>324.70</ele><time>2023-11-29T11:22:57Z</time></trkpt><trkpt lat="51.9291170966" lon="-2.0197279472"><ele>324.70</ele><time>2023-11-29T11:23:48Z</time></trkpt><trkpt lat="51.9291217905" lon="-2.0197074115"><ele>324.70</ele><time>2023-11-29T11:24:14Z</time></trkpt><trkpt lat="51.9291593414" lon="-2.0197160449"><ele>324.70</ele><time>2023-11-29T11:24:27Z</time></trkpt><trkpt lat="51.9291624427" lon="-2.0197147038"><ele>321.10</ele><time>2023-11-29T11:24:31Z</time></trkpt><trkpt lat="51.9291630294" lon="-2.0197147038"><ele>319.81</ele><time>2023-11-29T11:24:33Z</time></trkpt><trkpt lat="51.9291667175" lon="-2.0197017957"><ele>323.93</ele><time>2023-11-29T11:24:42Z</time></trkpt><trkpt lat="51.9291688129" lon="-2.0197060704"><ele>327.06</ele><time>2023-11-29T11:24:47Z</time></trkpt><trkpt lat="51.9291758537" lon="-2.0196972694"><ele>325.21</ele><time>2023-11-29T11:25:09Z</time></trkpt><trkpt lat="51.9293408096" lon="-2.0196731295"><ele>324.27</ele><time>2023-11-29T11:25:24Z</time></trkpt><trkpt lat="51.9295624271" lon="-2.0195814315"><ele>322.59</ele><time>2023-11-29T11:25:40Z</time></trkpt><trkpt lat="51.9298692048" lon="-2.0194489136"><ele>321.06</ele><time>2023-11-29T11:26:03Z</time></trkpt><trkpt lat="51.9301371742" lon="-2.0192866400"><ele>320.08</ele><time>2023-11-29T11:26:24Z</time></trkpt><trkpt lat="51.9301526807" lon="-2.0192687027"><ele>319.17</ele><time>2023-11-29T11:26:38Z</time></trkpt><trkpt lat="51.9301546924" lon="-2.0192667749"><ele>317.55</ele><time>2023-11-29T11:26:41Z</time></trkpt><trkpt lat="51.9301560335" lon="-2.0192577224"><ele>320.70</ele><time>2023-11-29T11:26:47Z</time></trkpt><trkpt lat="51.9302743860" lon="-2.0191141404"><ele>319.63</ele><time>2023-11-29T11:27:02Z</time></trkpt><trkpt lat="51.9304877054" lon="-2.0188588277"><ele>317.72</ele><time>2023-11-29T11:27:22Z</time></trkpt><trkpt lat="51.9305305369" lon="-2.0187894255"><ele>316.69</ele><time>2023-11-29T11:27:37Z</time></trkpt><trkpt lat="51.9305560179" lon="-2.0187627710"><ele>316.52</ele><time>2023-11-29T11:27:58Z</time></trkpt><trkpt lat="51.9306523260" lon="-2.0187032595"><ele>316.59</ele><time>2023-11-29T11:28:16Z</time></trkpt><trkpt lat="51.9306171220" lon="-2.0186867472"><ele>316.71</ele><time>2023-11-29T11:28:43Z</time></trkpt><trkpt lat="51.9306332991" lon="-2.0186584163"><ele>316.71</ele><time>2023-11-29T11:29:08Z</time></trkpt><trkpt lat="51.9307261705" lon="-2.0185745973"><ele>316.71</ele><time>2023-11-29T11:29:28Z</time></trkpt><trkpt lat="51.9307405036" lon="-2.0185588393"><ele>320.66</ele><time>2023-11-29T11:29:33Z</time></trkpt><trkpt lat="51.9307467062" lon="-2.0185554866"><ele>320.83</ele><time>2023-11-29T11:29:34Z</time></trkpt><trkpt lat="51.9307966623" lon="-2.0184681471"><ele>317.54</ele><time>2023-11-29T11:29:43Z</time></trkpt><trkpt lat="51.9308710098" lon="-2.0184080489"><ele>315.95</ele><time>2023-11-29T11:30:01Z</time></trkpt><trkpt lat="51.9309177808" lon="-2.0183554105"><ele>315.64</ele><time>2023-11-29T11:30:25Z</time></trkpt><trkpt lat="51.9309154339" lon="-2.0183599368"><ele>316.90</ele><time>2023-11-29T11:30:49Z</time></trkpt><trkpt lat="51.9309368078" lon="-2.0183399040"><ele>316.45</ele><time>2023-11-29T11:31:11Z</time></trkpt><trkpt lat="51.9309244025" lon="-2.0183160156"><ele>317.68</ele><time>2023-11-29T11:31:31Z</time></trkpt><trkpt lat="51.9309526496" lon="-2.0182502177"><ele>314.17</ele><time>2023-11-29T11:31:43Z</time></trkpt><trkpt lat="51.9309604447" lon="-2.0182405785"><ele>313.39</ele><time>2023-11-29T11:31:45Z</time></trkpt><trkpt lat="51.9309649710" lon="-2.0182144269"><ele>316.43</ele><time>2023-11-29T11:31:49Z</time></trkpt><trkpt lat="51.9309727661" lon="-2.0181787200"><ele>318.25</ele><time>2023-11-29T11:31:52Z</time></trkpt><trkpt lat="51.9309784658" lon="-2.0181090664"><ele>316.31</ele><time>2023-11-29T11:31:58Z</time></trkpt><trkpt lat="51.9310105685" lon="-2.0180984214"><ele>313.80</ele><time>2023-11-29T11:32:18Z</time></trkpt><trkpt lat="51.9310942199" lon="-2.0180453639"><ele>311.96</ele><time>2023-11-29T11:32:38Z</time></trkpt><trkpt lat="51.9311909471" lon="-2.0179504808"><ele>311.36</ele><time>2023-11-29T11:32:55Z</time></trkpt><trkpt lat="51.9313113112" lon="-2.0178098325"><ele>310.36</ele><time>2023-11-29T11:33:15Z</time></trkpt><trkpt lat="51.9314139057" lon="-2.0177348144"><ele>309.78</ele><time>2023-11-29T11:33:32Z</time></trkpt><trkpt lat="51.9315173384" lon="-2.0177855249"><ele>309.38</ele><time>2023-11-29T11:33:50Z</time></trkpt><trkpt lat="51.9315281510" lon="-2.0178880356"><ele>309.43</ele><time>2023-11-29T11:34:09Z</time></trkpt><trkpt lat="51.9315790292" lon="-2.0178943221"><ele>309.60</ele><time>2023-11-29T11:34:33Z</time></trkpt><trkpt lat="51.9317368604" lon="-2.0179153606"><ele>308.48</ele><time>2023-11-29T11:34:54Z</time></trkpt><trkpt lat="51.9318556320" lon="-2.0179175399"><ele>307.51</ele><time>2023-11-29T11:35:10Z</time></trkpt><trkpt lat="51.9319564663" lon="-2.0178990997"><ele>306.38</ele><time>2023-11-29T11:35:28Z</time></trkpt><trkpt lat="51.9321128726" lon="-2.0178868622"><ele>306.51</ele><time>2023-11-29T11:35:48Z</time></trkpt><trkpt lat="51.9322548620" lon="-2.0179677475"><ele>305.70</ele><time>2023-11-29T11:36:10Z</time></trkpt><trkpt lat="51.9323776569" lon="-2.0180419274"><ele>304.80</ele><time>2023-11-29T11:36:30Z</time></trkpt><trkpt lat="51.9323926605" lon="-2.0180316176"><ele>304.26</ele><time>2023-11-29T11:36:54Z</time></trkpt><trkpt lat="51.9324535970" lon="-2.0180766284"><ele>303.49</ele><time>2023-11-29T11:37:12Z</time></trkpt><trkpt lat="51.9325173832" lon="-2.0181123354"><ele>302.86</ele><time>2023-11-29T11:37:29Z</time></trkpt><trkpt lat="51.9326011185" lon="-2.0181878563"><ele>301.93</ele><time>2023-11-29T11:37:49Z</time></trkpt><trkpt lat="51.9326650724" lon="-2.0182627905"><ele>300.80</ele><time>2023-11-29T11:38:08Z</time></trkpt><trkpt lat="51.9326596241" lon="-2.0182560850"><ele>298.56</ele><time>2023-11-29T11:38:13Z</time></trkpt><trkpt lat="51.9326613005" lon="-2.0182541572"><ele>301.60</ele><time>2023-11-29T11:38:16Z</time></trkpt><trkpt lat="51.9326607976" lon="-2.0182532351"><ele>302.93</ele><time>2023-11-29T11:38:18Z</time></trkpt><trkpt lat="51.9326921459" lon="-2.0182826556"><ele>302.93</ele><time>2023-11-29T11:38:41Z</time></trkpt><trkpt lat="51.9327401742" lon="-2.0183459390"><ele>300.35</ele><time>2023-11-29T11:38:48Z</time></trkpt><trkpt lat="51.9328637235" lon="-2.0183617808"><ele>298.10</ele><time>2023-11-29T11:39:08Z</time></trkpt><trkpt lat="51.9328854326" lon="-2.0183692407"><ele>297.21</ele><time>2023-11-29T11:39:27Z</time></trkpt><trkpt lat="51.9328973349" lon="-2.0183676481"><ele>297.05</ele><time>2023-11-29T11:39:43Z</time></trkpt><trkpt lat="51.9330202136" lon="-2.0183710009"><ele>295.90</ele><time>2023-11-29T11:40:03Z</time></trkpt><trkpt lat="51.9331072178" lon="-2.0183890220"><ele>292.79</ele><time>2023-11-29T11:40:12Z</time></trkpt><trkpt lat="51.9331924617" lon="-2.0184393972"><ele>296.41</ele><time>2023-11-29T11:40:22Z</time></trkpt><trkpt lat="51.9333663024" lon="-2.0185816381"><ele>293.31</ele><time>2023-11-29T11:40:39Z</time></trkpt><trkpt lat="51.9334937073" lon="-2.0186901838"><ele>290.98</ele><time>2023-11-29T11:40:58Z</time></trkpt><trkpt lat="51.9335900154" lon="-2.0187703148"><ele>289.20</ele><time>2023-11-29T11:41:17Z</time></trkpt><trkpt lat="51.9336762652" lon="-2.0188289881"><ele>288.53</ele><time>2023-11-29T11:41:33Z</time></trkpt><trkpt lat="51.9337906782" lon="-2.0188808721"><ele>287.09</ele><time>2023-11-29T11:41:51Z</time></trkpt><trkpt lat="51.9338972960" lon="-2.0189437363"><ele>285.80</ele><time>2023-11-29T11:42:05Z</time></trkpt><trkpt lat="51.9340387825" lon="-2.0189567283"><ele>284.25</ele><time>2023-11-29T11:42:22Z</time></trkpt><trkpt lat="51.9342297222" lon="-2.0190485101"><ele>282.91</ele><time>2023-11-29T11:42:46Z</time></trkpt><trkpt lat="51.9343255274" lon="-2.0191174932"><ele>283.09</ele><time>2023-11-29T11:43:01Z</time></trkpt><trkpt lat="51.9343505055" lon="-2.0191184990"><ele>283.21</ele><time>2023-11-29T11:43:25Z</time></trkpt><trkpt lat="51.9343717117" lon="-2.0191490091"><ele>283.40</ele><time>2023-11-29T11:43:47Z</time></trkpt><trkpt lat="51.9344344921" lon="-2.0192004740"><ele>283.27</ele><time>2023-11-29T11:44:06Z</time></trkpt><trkpt lat="51.9344755635" lon="-2.0192123763"><ele>283.23</ele><time>2023-11-29T11:44:26Z</time></trkpt><trkpt lat="51.9345109351" lon="-2.0192582253"><ele>283.23</ele><time>2023-11-29T11:44:49Z</time></trkpt><trkpt lat="51.9345417805" lon="-2.0193562098"><ele>283.23</ele><time>2023-11-29T11:45:10Z</time></trkpt><trkpt lat="51.9346368313" lon="-2.0195489097"><ele>283.23</ele><time>2023-11-29T11:45:32Z</time></trkpt><trkpt lat="51.9347157050" lon="-2.0196532644"><ele>283.23</ele><time>2023-11-29T11:45:51Z</time></trkpt><trkpt lat="51.9347923994" lon="-2.0197706111"><ele>288.49</ele><time>2023-11-29T11:46:09Z</time></trkpt><trkpt lat="51.9347965904" lon="-2.0197735447"><ele>288.59</ele><time>2023-11-29T11:46:10Z</time></trkpt><trkpt lat="51.9348630589" lon="-2.0198639017"><ele>290.27</ele><time>2023-11-29T11:46:32Z</time></trkpt><trkpt lat="51.9349230733" lon="-2.0199391712"><ele>291.21</ele><time>2023-11-29T11:46:56Z</time></trkpt><trkpt lat="51.9349975046" lon="-2.0200219005"><ele>293.29</ele><time>2023-11-29T11:47:18Z</time></trkpt><trkpt lat="51.9350731932" lon="-2.0201451145"><ele>295.06</ele><time>2023-11-29T11:47:40Z</time></trkpt><trkpt lat="51.9351011049" lon="-2.0202495530"><ele>297.00</ele><time>2023-11-29T11:48:04Z</time></trkpt><trkpt lat="51.9351105765" lon="-2.0204172749"><ele>299.18</ele><time>2023-11-29T11:48:27Z</time></trkpt><trkpt lat="51.9351236522" lon="-2.0204705838"><ele>300.57</ele><time>2023-11-29T11:48:48Z</time></trkpt><trkpt lat="51.9352657255" lon="-2.0204027742"><ele>300.87</ele><time>2023-11-29T11:49:08Z</time></trkpt><trkpt lat="51.9353863411" lon="-2.0202854276"><ele>301.41</ele><time>2023-11-29T11:49:29Z</time></trkpt><trkpt lat="51.9355183560" lon="-2.0201484673"><ele>301.82</ele><time>2023-11-29T11:49:47Z</time></trkpt><trkpt lat="51.9356506225" lon="-2.0200066455"><ele>302.56</ele><time>2023-11-29T11:50:08Z</time></trkpt><trkpt lat="51.9357727468" lon="-2.0198835153"><ele>303.32</ele><time>2023-11-29T11:50:27Z</time></trkpt><trkpt lat="51.9358913507" lon="-2.0197452139"><ele>304.17</ele><time>2023-11-29T11:50:47Z</time></trkpt><trkpt lat="51.9359211065" lon="-2.0196959283"><ele>304.48</ele><time>2023-11-29T11:51:04Z</time></trkpt><trkpt lat="51.9359315000" lon="-2.0197013766"><ele>301.40</ele><time>2023-11-29T11:51:17Z</time></trkpt><trkpt lat="51.9359377865" lon="-2.0197019633"><ele>305.79</ele><time>2023-11-29T11:51:20Z</time></trkpt><trkpt lat="51.9359719846" lon="-2.0196625683"><ele>305.04</ele><time>2023-11-29T11:51:41Z</time></trkpt><trkpt lat="51.9360138942" lon="-2.0196214970"><ele>303.27</ele><time>2023-11-29T11:52:00Z</time></trkpt><trkpt lat="51.9360941090" lon="-2.0195494965"><ele>306.41</ele><time>2023-11-29T11:52:08Z</time></trkpt><trkpt lat="51.9361848850" lon="-2.0194314793"><ele>305.96</ele><time>2023-11-29T11:52:26Z</time></trkpt><trkpt lat="51.9362622499" lon="-2.0193112828"><ele>305.64</ele><time>2023-11-29T11:52:46Z</time></trkpt><trkpt lat="51.9363812730" lon="-2.0191276353"><ele>305.22</ele><time>2023-11-29T11:53:06Z</time></trkpt><trkpt lat="51.9365108572" lon="-2.0189863164"><ele>305.22</ele><time>2023-11-29T11:53:26Z</time></trkpt><trkpt lat="51.9366388489" lon="-2.0188594982"><ele>305.22</ele><time>2023-11-29T11:53:46Z</time></trkpt><trkpt lat="51.9367586263" lon="-2.0187273994"><ele>305.22</ele><time>2023-11-29T11:54:07Z</time></trkpt><trkpt lat="51.9368529227" lon="-2.0186709054"><ele>305.22</ele><time>2023-11-29T11:54:29Z</time></trkpt><trkpt lat="51.9369242527" lon="-2.0186238829"><ele>305.22</ele><time>2023-11-29T11:55:00Z</time></trkpt><trkpt lat="51.9371011108" lon="-2.0185192768"><ele>306.85</ele><time>2023-11-29T11:55:21Z</time></trkpt><trkpt lat="51.9372702576" lon="-2.0184071269"><ele>306.77</ele><time>2023-11-29T11:55:43Z</time></trkpt><trkpt lat="51.9373950642" lon="-2.0182525646"><ele>306.34</ele><time>2023-11-29T11:56:04Z</time></trkpt><trkpt lat="51.9375166856" lon="-2.0180624630"><ele>305.40</ele><time>2023-11-29T11:56:24Z</time></trkpt><trkpt lat="51.9376012590" lon="-2.0179717708"><ele>304.48</ele><time>2023-11-29T11:56:43Z</time></trkpt><trkpt lat="51.9377072062" lon="-2.0179220662"><ele>303.86</ele><time>2023-11-29T11:57:01Z</time></trkpt><trkpt lat="51.9377442542" lon="-2.0179018658"><ele>303.35</ele><time>2023-11-29T11:57:16Z</time></trkpt><trkpt lat="51.9378274027" lon="-2.0178581960"><ele>302.56</ele><time>2023-11-29T11:57:34Z</time></trkpt><trkpt lat="51.9378500339" lon="-2.0178655721"><ele>302.22</ele><time>2023-11-29T11:57:51Z</time></trkpt><trkpt lat="51.9379138201" lon="-2.0179025363"><ele>301.99</ele><time>2023-11-29T11:58:07Z</time></trkpt><trkpt lat="51.9380015787" lon="-2.0178882871"><ele>301.22</ele><time>2023-11-29T11:58:23Z</time></trkpt><trkpt lat="51.9381347671" lon="-2.0178509038"><ele>299.71</ele><time>2023-11-29T11:58:40Z</time></trkpt><trkpt lat="51.9383416325" lon="-2.0179167017"><ele>298.96</ele><time>2023-11-29T11:59:03Z</time></trkpt><trkpt lat="51.9384952728" lon="-2.0179846790"><ele>298.02</ele><time>2023-11-29T11:59:22Z</time></trkpt><trkpt lat="51.9386929180" lon="-2.0180324558"><ele>297.60</ele><time>2023-11-29T11:59:44Z</time></trkpt><trkpt lat="51.9389036391" lon="-2.0181246568"><ele>296.27</ele><time>2023-11-29T12:00:10Z</time></trkpt><trkpt lat="51.9390465505" lon="-2.0181740262"><ele>295.54</ele><time>2023-11-29T12:00:30Z</time></trkpt><trkpt lat="51.9391608797" lon="-2.0182059612"><ele>294.51</ele><time>2023-11-29T12:00:48Z</time></trkpt><trkpt lat="51.9392782263" lon="-2.0182009321"><ele>293.34</ele><time>2023-11-29T12:01:07Z</time></trkpt><trkpt lat="51.9393889513" lon="-2.0182451885"><ele>292.23</ele><time>2023-11-29T12:01:26Z</time></trkpt><trkpt lat="51.9395516440" lon="-2.0183166023"><ele>290.78</ele><time>2023-11-29T12:01:49Z</time></trkpt><trkpt lat="51.9396892749" lon="-2.0183487888"><ele>289.20</ele><time>2023-11-29T12:02:11Z</time></trkpt><trkpt lat="51.9398046937" lon="-2.0183883514"><ele>288.15</ele><time>2023-11-29T12:02:31Z</time></trkpt><trkpt lat="51.9398600142" lon="-2.0184135810"><ele>287.21</ele><time>2023-11-29T12:02:49Z</time></trkpt><trkpt lat="51.9398366287" lon="-2.0185313467"><ele>286.76</ele><time>2023-11-29T12:03:05Z</time></trkpt><trkpt lat="51.9398428313" lon="-2.0186621882"><ele>285.83</ele><time>2023-11-29T12:03:21Z</time></trkpt><trkpt lat="51.9398847409" lon="-2.0188272279"><ele>284.45</ele><time>2023-11-29T12:03:40Z</time></trkpt><trkpt lat="51.9399135746" lon="-2.0189562254"><ele>283.12</ele><time>2023-11-29T12:03:58Z</time></trkpt><trkpt lat="51.9399404805" lon="-2.0190118812"><ele>281.27</ele><time>2023-11-29T12:04:18Z</time></trkpt><trkpt lat="51.9399869163" lon="-2.0191454049"><ele>280.87</ele><time>2023-11-29T12:04:33Z</time></trkpt><trkpt lat="51.9399930350" lon="-2.0191967022"><ele>282.04</ele><time>2023-11-29T12:04:52Z</time></trkpt><trkpt lat="51.9400973059" lon="-2.0191064291"><ele>281.09</ele><time>2023-11-29T12:05:05Z</time></trkpt><trkpt lat="51.9401883334" lon="-2.0191224385"><ele>279.01</ele><time>2023-11-29T12:05:21Z</time></trkpt><trkpt lat="51.9402073603" lon="-2.0191480033"><ele>277.68</ele><time>2023-11-29T12:05:35Z</time></trkpt><trkpt lat="51.9402294885" lon="-2.0192385279"><ele>276.52</ele><time>2023-11-29T12:05:48Z</time></trkpt><trkpt lat="51.9402357750" lon="-2.0192599017"><ele>276.28</ele><time>2023-11-29T12:05:50Z</time></trkpt><trkpt lat="51.9402974658" lon="-2.0193667710"><ele>274.63</ele><time>2023-11-29T12:06:05Z</time></trkpt><trkpt lat="51.9403760042" lon="-2.0194774959"><ele>272.61</ele><time>2023-11-29T12:06:22Z</time></trkpt><trkpt lat="51.9404037483" lon="-2.0195330679"><ele>271.35</ele><time>2023-11-29T12:06:36Z</time></trkpt><trkpt lat="51.9404453225" lon="-2.0196977723"><ele>268.58</ele><time>2023-11-29T12:06:57Z</time></trkpt><trkpt lat="51.9404810295" lon="-2.0198244229"><ele>265.94</ele><time>2023-11-29T12:07:16Z</time></trkpt><trkpt lat="51.9405300636" lon="-2.0200307854"><ele>264.22</ele><time>2023-11-29T12:07:32Z</time></trkpt><trkpt lat="51.9405360986" lon="-2.0201102458"><ele>262.20</ele><time>2023-11-29T12:07:49Z</time></trkpt><trkpt lat="51.9405986276" lon="-2.0202833321"><ele>261.12</ele><time>2023-11-29T12:08:07Z</time></trkpt><trkpt lat="51.9406749029" lon="-2.0204427559"><ele>259.18</ele><time>2023-11-29T12:08:24Z</time></trkpt><trkpt lat="51.9406921696" lon="-2.0204935502"><ele>258.38</ele><time>2023-11-29T12:08:41Z</time></trkpt><trkpt lat="51.9407347497" lon="-2.0205984078"><ele>257.67</ele><time>2023-11-29T12:08:57Z</time></trkpt><trkpt lat="51.9408153836" lon="-2.0207258128"><ele>256.23</ele><time>2023-11-29T12:09:15Z</time></trkpt><trkpt lat="51.9408759009" lon="-2.0208600909"><ele>254.71</ele><time>2023-11-29T12:09:32Z</time></trkpt><trkpt lat="51.9409513380" lon="-2.0209863223"><ele>253.09</ele><time>2023-11-29T12:09:49Z</time></trkpt><trkpt lat="51.9409686886" lon="-2.0210122224"><ele>251.82</ele><time>2023-11-29T12:10:10Z</time></trkpt><trkpt lat="51.9409779087" lon="-2.0210898388"><ele>251.53</ele><time>2023-11-29T12:10:33Z</time></trkpt><trkpt lat="51.9408808462" lon="-2.0211986359"><ele>250.23</ele><time>2023-11-29T12:10:58Z</time></trkpt><trkpt lat="51.9408676028" lon="-2.0212293137"><ele>248.89</ele><time>2023-11-29T12:11:18Z</time></trkpt><trkpt lat="51.9408121984" lon="-2.0213506836"><ele>247.81</ele><time>2023-11-29T12:11:36Z</time></trkpt><trkpt lat="51.9407723844" lon="-2.0215006359"><ele>245.85</ele><time>2023-11-29T12:11:57Z</time></trkpt><trkpt lat="51.9407669362" lon="-2.0215927530"><ele>244.56</ele><time>2023-11-29T12:12:20Z</time></trkpt><trkpt lat="51.9407510106" lon="-2.0216584671"><ele>243.20</ele><time>2023-11-29T12:12:41Z</time></trkpt><trkpt lat="51.9407362584" lon="-2.0217691083"><ele>241.65</ele><time>2023-11-29T12:13:02Z</time></trkpt><trkpt lat="51.9407120347" lon="-2.0218567830"><ele>239.53</ele><time>2023-11-29T12:13:23Z</time></trkpt><trkpt lat="51.9407244399" lon="-2.0218556095"><ele>239.17</ele><time>2023-11-29T12:13:50Z</time></trkpt><trkpt lat="51.9406822789" lon="-2.0219225809"><ele>238.98</ele><time>2023-11-29T12:14:07Z</time></trkpt><trkpt lat="51.9406420458" lon="-2.0220545959"><ele>237.10</ele><time>2023-11-29T12:14:25Z</time></trkpt><trkpt lat="51.9406294730" lon="-2.0221623033"><ele>236.30</ele><time>2023-11-29T12:14:45Z</time></trkpt><trkpt lat="51.9406096078" lon="-2.0222552586"><ele>235.25</ele><time>2023-11-29T12:15:02Z</time></trkpt><trkpt lat="51.9405926764" lon="-2.0223452803"><ele>233.82</ele><time>2023-11-29T12:15:20Z</time></trkpt><trkpt lat="51.9405868091" lon="-2.0224914607"><ele>232.99</ele><time>2023-11-29T12:15:43Z</time></trkpt><trkpt lat="51.9405891560" lon="-2.0225456916"><ele>231.91</ele><time>2023-11-29T12:15:57Z</time></trkpt><trkpt lat="51.9405434746" lon="-2.0227001701"><ele>230.95</ele><time>2023-11-29T12:16:13Z</time></trkpt><trkpt lat="51.9404502679" lon="-2.0229212847"><ele>229.93</ele><time>2023-11-29T12:16:35Z</time></trkpt><trkpt lat="51.9403687119" lon="-2.0231001545"><ele>229.59</ele><time>2023-11-29T12:16:56Z</time></trkpt><trkpt lat="51.9403278083" lon="-2.0231887512"><ele>229.41</ele><time>2023-11-29T12:17:12Z</time></trkpt><trkpt lat="51.9402170833" lon="-2.0234217681"><ele>229.19</ele><time>2023-11-29T12:17:34Z</time></trkpt><trkpt lat="51.9401280675" lon="-2.0235849638"><ele>227.61</ele><time>2023-11-29T12:17:54Z</time></trkpt><trkpt lat="51.9400316756" lon="-2.0237648394"><ele>226.76</ele><time>2023-11-29T12:18:11Z</time></trkpt><trkpt lat="51.9399874192" lon="-2.0238791686"><ele>226.29</ele><time>2023-11-29T12:18:26Z</time></trkpt><trkpt lat="51.9399043545" lon="-2.0241106767"><ele>226.11</ele><time>2023-11-29T12:18:46Z</time></trkpt><trkpt lat="51.9398362096" lon="-2.0243509021"><ele>225.98</ele><time>2023-11-29T12:19:09Z</time></trkpt><trkpt lat="51.9398052804" lon="-2.0244931430"><ele>226.11</ele><time>2023-11-29T12:19:25Z</time></trkpt><trkpt lat="51.9397588447" lon="-2.0246764552"><ele>226.80</ele><time>2023-11-29T12:19:43Z</time></trkpt><trkpt lat="51.9397569168" lon="-2.0246979129"><ele>227.36</ele><time>2023-11-29T12:19:58Z</time></trkpt><trkpt lat="51.9397562463" lon="-2.0247475337"><ele>227.46</ele><time>2023-11-29T12:20:15Z</time></trkpt><trkpt lat="51.9396964833" lon="-2.0249657985"><ele>227.69</ele><time>2023-11-29T12:20:33Z</time></trkpt><trkpt lat="51.9396487065" lon="-2.0251612645"><ele>227.31</ele><time>2023-11-29T12:20:49Z</time></trkpt><trkpt lat="51.9395999238" lon="-2.0253993943"><ele>226.99</ele><time>2023-11-29T12:21:09Z</time></trkpt><trkpt lat="51.9395741075" lon="-2.0256072655"><ele>227.23</ele><time>2023-11-29T12:21:28Z</time></trkpt><trkpt lat="51.9395660609" lon="-2.0257824473"><ele>227.68</ele><time>2023-11-29T12:21:45Z</time></trkpt><trkpt lat="51.9395528175" lon="-2.0259531029"><ele>227.65</ele><time>2023-11-29T12:22:06Z</time></trkpt><trkpt lat="51.9395370595" lon="-2.0260582957"><ele>228.23</ele><time>2023-11-29T12:22:21Z</time></trkpt><trkpt lat="51.9395184517" lon="-2.0262631495"><ele>228.71</ele><time>2023-11-29T12:22:39Z</time></trkpt><trkpt lat="51.9395096507" lon="-2.0263875369"><ele>228.76</ele><time>2023-11-29T12:22:57Z</time></trkpt><trkpt lat="51.9394814037" lon="-2.0266193803"><ele>228.76</ele><time>2023-11-29T12:23:15Z</time></trkpt><trkpt lat="51.9394003507" lon="-2.0268015191"><ele>229.32</ele><time>2023-11-29T12:23:35Z</time></trkpt><trkpt lat="51.9392897096" lon="-2.0269476157"><ele>229.44</ele><time>2023-11-29T12:23:51Z</time></trkpt><trkpt lat="51.9392414298" lon="-2.0270100608"><ele>229.11</ele><time>2023-11-29T12:24:12Z</time></trkpt><trkpt lat="51.9391907193" lon="-2.0270791277"><ele>229.11</ele><time>2023-11-29T12:24:31Z</time></trkpt><trkpt lat="51.9391481392" lon="-2.0270830672"><ele>229.03</ele><time>2023-11-29T12:24:35Z</time></trkpt><trkpt lat="51.9389511645" lon="-2.0272143278"><ele>226.01</ele><time>2023-11-29T12:24:55Z</time></trkpt><trkpt lat="51.9388468936" lon="-2.0272809640"><ele>224.74</ele><time>2023-11-29T12:25:13Z</time></trkpt><trkpt lat="51.9387381803" lon="-2.0273532160"><ele>223.27</ele><time>2023-11-29T12:25:31Z</time></trkpt><trkpt lat="51.9386906549" lon="-2.0273955446"><ele>222.24</ele><time>2023-11-29T12:25:50Z</time></trkpt><trkpt lat="51.9386935886" lon="-2.0273801219"><ele>219.49</ele><time>2023-11-29T12:26:07Z</time></trkpt><trkpt lat="51.9386973605" lon="-2.0273848157"><ele>218.80</ele><time>2023-11-29T12:26:09Z</time></trkpt><trkpt lat="51.9386987016" lon="-2.0273905154"><ele>222.16</ele><time>2023-11-29T12:26:12Z</time></trkpt><trkpt lat="51.9386970252" lon="-2.0273930300"><ele>224.06</ele><time>2023-11-29T12:26:15Z</time></trkpt><trkpt lat="51.9386645034" lon="-2.0274342690"><ele>222.63</ele><time>2023-11-29T12:26:20Z</time></trkpt><trkpt lat="51.9385510124" lon="-2.0275075268"><ele>219.23</ele><time>2023-11-29T12:26:31Z</time></trkpt><trkpt lat="51.9385437202" lon="-2.0275142323"><ele>218.93</ele><time>2023-11-29T12:26:32Z</time></trkpt><trkpt lat="51.9385079294" lon="-2.0275660325"><ele>221.79</ele><time>2023-11-29T12:26:38Z</time></trkpt><trkpt lat="51.9384096097" lon="-2.0277104527"><ele>218.78</ele><time>2023-11-29T12:26:56Z</time></trkpt><trkpt lat="51.9382778462" lon="-2.0278764982"><ele>217.47</ele><time>2023-11-29T12:27:19Z</time></trkpt><trkpt lat="51.9382746611" lon="-2.0279425476"><ele>216.36</ele><time>2023-11-29T12:27:39Z</time></trkpt><trkpt lat="51.9382897485" lon="-2.0281032287"><ele>214.54</ele><time>2023-11-29T12:27:59Z</time></trkpt><trkpt lat="51.9382782653" lon="-2.0281650871"><ele>214.43</ele><time>2023-11-29T12:28:21Z</time></trkpt><trkpt lat="51.9382739905" lon="-2.0283317193"><ele>213.22</ele><time>2023-11-29T12:28:39Z</time></trkpt><trkpt lat="51.9382995553" lon="-2.0283779036"><ele>211.63</ele><time>2023-11-29T12:29:00Z</time></trkpt><trkpt lat="51.9382772595" lon="-2.0285197254"><ele>211.01</ele><time>2023-11-29T12:29:24Z</time></trkpt><trkpt lat="51.9383024052" lon="-2.0286727790"><ele>209.59</ele><time>2023-11-29T12:29:45Z</time></trkpt><trkpt lat="51.9384070113" lon="-2.0287700929"><ele>208.84</ele><time>2023-11-29T12:30:02Z</time></trkpt><trkpt lat="51.9385484140" lon="-2.0289210510"><ele>207.65</ele><time>2023-11-29T12:30:25Z</time></trkpt><trkpt lat="51.9385586400" lon="-2.0289406646"><ele>206.96</ele><time>2023-11-29T12:30:51Z</time></trkpt><trkpt lat="51.9385557901" lon="-2.0289428439"><ele>205.92</ele><time>2023-11-29T12:31:00Z</time></trkpt></trkseg></trk></gpx>